sensor_id;sensor_type;location;lat;lon;timestamp;P1;durP1;ratioP1;P2;durP2;ratioP2
6483;SDS011;3275;52.376;9.694;2023-06-26T00:00:04;9.70;;;6.70;;
6483;SDS011;3275;52.376;9.694;2023-06-26T00:02:34;7.03;;;5.47;;
6483;SDS011;3275;52.376;9.694;2023-06-26T00:05:00;8.93;;;6.60;;
6483;SDS011;3275;52.376;9.694;2023-06-26T00:07:28;8.50;;;6.80;;
6483;SDS011;3275;52.376;9.694;2023-06-26T00:09:55;8.90;;;6.57;;
6483;SDS011;3275;52.376;9.694;2023-06-26T00:12:22;7.60;;;6.57;;
6483;SDS011;3275;52.376;9.694;2023-06-26T00:14:48;7.87;;;6.37;;
6483;SDS011;3275;52.376;9.694;2023-06-26T00:17:15;14.40;;;6.50;;
6483;SDS011;3275;52.376;9.694;2023-06-26T00:19:43;8.07;;;6.20;;
6483;SDS011;3275;52.376;9.694;2023-06-26T00:22:09;7.47;;;6.00;;
6483;SDS011;3275;52.376;9.694;2023-06-26T00:24:36;6.73;;;6.03;;
6483;SDS011;3275;52.376;9.694;2023-06-26T00:27:03;7.60;;;6.30;;
6483;SDS011;3275;52.376;9.694;2023-06-26T00:29:30;8.13;;;6.53;;
6483;SDS011;3275;52.376;9.694;2023-06-26T00:31:56;8.93;;;6.77;;
6483;SDS011;3275;52.376;9.694;2023-06-26T00:34:23;8.30;;;6.03;;
6483;SDS011;3275;52.376;9.694;2023-06-26T00:36:51;7.27;;;5.87;;
6483;SDS011;3275;52.376;9.694;2023-06-26T00:39:17;7.80;;;5.80;;
6483;SDS011;3275;52.376;9.694;2023-06-26T00:41:44;10.93;;;6.47;;
6483;SDS011;3275;52.376;9.694;2023-06-26T00:44:10;7.50;;;6.30;;
6483;SDS011;3275;52.376;9.694;2023-06-26T00:46:37;10.37;;;6.17;;
6483;SDS011;3275;52.376;9.694;2023-06-26T00:49:04;9.23;;;5.83;;
6483;SDS011;3275;52.376;9.694;2023-06-26T00:51:31;8.03;;;6.23;;
6483;SDS011;3275;52.376;9.694;2023-06-26T00:53:59;6.70;;;5.60;;
6483;SDS011;3275;52.376;9.694;2023-06-26T00:56:26;5.90;;;5.17;;
6483;SDS011;3275;52.376;9.694;2023-06-26T00:58:54;7.43;;;6.37;;
6483;SDS011;3275;52.376;9.694;2023-06-26T01:01:20;7.10;;;5.87;;
6483;SDS011;3275;52.376;9.694;2023-06-26T01:03:50;8.97;;;5.93;;
6483;SDS011;3275;52.376;9.694;2023-06-26T01:06:20;8.73;;;5.90;;
6483;SDS011;3275;52.376;9.694;2023-06-26T01:08:48;9.10;;;6.20;;
6483;SDS011;3275;52.376;9.694;2023-06-26T01:11:16;6.40;;;5.70;;
6483;SDS011;3275;52.376;9.694;2023-06-26T01:13:43;6.90;;;5.77;;
6483;SDS011;3275;52.376;9.694;2023-06-26T01:16:11;7.87;;;6.00;;
6483;SDS011;3275;52.376;9.694;2023-06-26T01:18:38;6.67;;;5.70;;
6483;SDS011;3275;52.376;9.694;2023-06-26T01:21:07;7.77;;;5.60;;
6483;SDS011;3275;52.376;9.694;2023-06-26T01:23:35;6.40;;;5.13;;
6483;SDS011;3275;52.376;9.694;2023-06-26T01:26:15;6.60;;;5.37;;
6483;SDS011;3275;52.376;9.694;2023-06-26T01:28:45;7.40;;;6.00;;
6483;SDS011;3275;52.376;9.694;2023-06-26T01:31:12;7.97;;;5.60;;
6483;SDS011;3275;52.376;9.694;2023-06-26T01:33:40;8.13;;;5.43;;
6483;SDS011;3275;52.376;9.694;2023-06-26T01:36:07;6.53;;;5.13;;
6483;SDS011;3275;52.376;9.694;2023-06-26T01:38:34;8.50;;;6.43;;
6483;SDS011;3275;52.376;9.694;2023-06-26T01:41:01;6.93;;;5.90;;
6483;SDS011;3275;52.376;9.694;2023-06-26T01:43:31;8.63;;;5.73;;
6483;SDS011;3275;52.376;9.694;2023-06-26T01:46:03;8.03;;;5.67;;
6483;SDS011;3275;52.376;9.694;2023-06-26T01:48:34;8.07;;;6.40;;
6483;SDS011;3275;52.376;9.694;2023-06-26T01:51:06;7.30;;;5.87;;
6483;SDS011;3275;52.376;9.694;2023-06-26T01:53:35;14.30;;;5.60;;
6483;SDS011;3275;52.376;9.694;2023-06-26T01:56:06;7.03;;;5.67;;
6483;SDS011;3275;52.376;9.694;2023-06-26T01:58:36;8.23;;;5.97;;
6483;SDS011;3275;52.376;9.694;2023-06-26T02:01:03;7.60;;;5.43;;
6483;SDS011;3275;52.376;9.694;2023-06-26T02:03:30;7.50;;;6.30;;
6483;SDS011;3275;52.376;9.694;2023-06-26T02:05:57;7.70;;;5.70;;
6483;SDS011;3275;52.376;9.694;2023-06-26T02:08:23;8.43;;;5.97;;
6483;SDS011;3275;52.376;9.694;2023-06-26T02:10:50;11.03;;;5.60;;
6483;SDS011;3275;52.376;9.694;2023-06-26T02:13:16;10.60;;;6.33;;
6483;SDS011;3275;52.376;9.694;2023-06-26T02:15:44;8.47;;;5.30;;
6483;SDS011;3275;52.376;9.694;2023-06-26T02:18:11;17.00;;;5.67;;
6483;SDS011;3275;52.376;9.694;2023-06-26T02:20:37;6.50;;;4.97;;
6483;SDS011;3275;52.376;9.694;2023-06-26T02:23:04;11.30;;;5.70;;
6483;SDS011;3275;52.376;9.694;2023-06-26T02:25:32;8.50;;;5.27;;
6483;SDS011;3275;52.376;9.694;2023-06-26T02:27:59;8.10;;;5.80;;
6483;SDS011;3275;52.376;9.694;2023-06-26T02:30:25;8.00;;;6.00;;
6483;SDS011;3275;52.376;9.694;2023-06-26T02:32:53;11.20;;;4.93;;
6483;SDS011;3275;52.376;9.694;2023-06-26T02:35:20;7.80;;;5.80;;
6483;SDS011;3275;52.376;9.694;2023-06-26T02:37:46;9.90;;;5.27;;
6483;SDS011;3275;52.376;9.694;2023-06-26T02:40:13;11.90;;;6.10;;
6483;SDS011;3275;52.376;9.694;2023-06-26T02:42:39;7.70;;;5.80;;
6483;SDS011;3275;52.376;9.694;2023-06-26T02:45:06;6.40;;;4.87;;
6483;SDS011;3275;52.376;9.694;2023-06-26T02:47:34;6.27;;;5.27;;
6483;SDS011;3275;52.376;9.694;2023-06-26T02:50:06;8.30;;;5.90;;
6483;SDS011;3275;52.376;9.694;2023-06-26T02:52:33;10.80;;;5.50;;
6483;SDS011;3275;52.376;9.694;2023-06-26T02:54:59;6.47;;;4.97;;
6483;SDS011;3275;52.376;9.694;2023-06-26T02:57:26;6.63;;;5.17;;
6483;SDS011;3275;52.376;9.694;2023-06-26T02:59:52;9.00;;;5.90;;
6483;SDS011;3275;52.376;9.694;2023-06-26T03:02:19;7.53;;;5.37;;
6483;SDS011;3275;52.376;9.694;2023-06-26T03:04:45;9.70;;;5.63;;
6483;SDS011;3275;52.376;9.694;2023-06-26T03:07:13;8.33;;;5.43;;
6483;SDS011;3275;52.376;9.694;2023-06-26T03:09:40;8.80;;;5.20;;
6483;SDS011;3275;52.376;9.694;2023-06-26T03:12:08;6.33;;;4.70;;
6483;SDS011;3275;52.376;9.694;2023-06-26T03:14:35;7.30;;;5.93;;
6483;SDS011;3275;52.376;9.694;2023-06-26T03:17:01;9.37;;;4.80;;
6483;SDS011;3275;52.376;9.694;2023-06-26T03:19:28;9.10;;;4.97;;
6483;SDS011;3275;52.376;9.694;2023-06-26T03:21:55;6.33;;;4.90;;
6483;SDS011;3275;52.376;9.694;2023-06-26T03:24:23;6.40;;;4.70;;
6483;SDS011;3275;52.376;9.694;2023-06-26T03:26:50;8.87;;;4.60;;
6483;SDS011;3275;52.376;9.694;2023-06-26T03:29:16;12.00;;;4.60;;
6483;SDS011;3275;52.376;9.694;2023-06-26T03:31:43;5.90;;;4.63;;
6483;SDS011;3275;52.376;9.694;2023-06-26T03:34:10;6.43;;;5.00;;
6483;SDS011;3275;52.376;9.694;2023-06-26T03:36:36;5.93;;;4.20;;
6483;SDS011;3275;52.376;9.694;2023-06-26T03:39:03;7.13;;;5.03;;
6483;SDS011;3275;52.376;9.694;2023-06-26T03:41:31;10.07;;;4.67;;
6483;SDS011;3275;52.376;9.694;2023-06-26T03:43:57;7.53;;;5.27;;
6483;SDS011;3275;52.376;9.694;2023-06-26T03:46:25;7.27;;;4.80;;
6483;SDS011;3275;52.376;9.694;2023-06-26T03:48:52;6.87;;;4.73;;
6483;SDS011;3275;52.376;9.694;2023-06-26T03:51:18;5.07;;;3.93;;
6483;SDS011;3275;52.376;9.694;2023-06-26T03:53:45;6.23;;;4.77;;
6483;SDS011;3275;52.376;9.694;2023-06-26T03:56:12;8.20;;;4.37;;
6483;SDS011;3275;52.376;9.694;2023-06-26T03:58:40;5.97;;;4.50;;
6483;SDS011;3275;52.376;9.694;2023-06-26T04:01:07;6.60;;;4.67;;
6483;SDS011;3275;52.376;9.694;2023-06-26T04:03:33;6.73;;;5.50;;
6483;SDS011;3275;52.376;9.694;2023-06-26T04:06:00;8.30;;;5.27;;
6483;SDS011;3275;52.376;9.694;2023-06-26T04:08:26;8.33;;;5.73;;
6483;SDS011;3275;52.376;9.694;2023-06-26T04:10:53;6.73;;;5.23;;
6483;SDS011;3275;52.376;9.694;2023-06-26T04:13:22;8.40;;;4.70;;
6483;SDS011;3275;52.376;9.694;2023-06-26T04:15:50;8.03;;;5.30;;
6483;SDS011;3275;52.376;9.694;2023-06-26T04:18:16;9.80;;;4.40;;
6483;SDS011;3275;52.376;9.694;2023-06-26T04:23:30;8.87;;;5.33;;
6483;SDS011;3275;52.376;9.694;2023-06-26T04:25:57;7.20;;;4.73;;
6483;SDS011;3275;52.376;9.694;2023-06-26T04:28:24;7.27;;;5.47;;
6483;SDS011;3275;52.376;9.694;2023-06-26T04:30:51;7.20;;;5.00;;
6483;SDS011;3275;52.376;9.694;2023-06-26T04:33:18;7.53;;;4.50;;
6483;SDS011;3275;52.376;9.694;2023-06-26T04:35:45;5.73;;;4.50;;
6483;SDS011;3275;52.376;9.694;2023-06-26T04:38:13;7.73;;;4.60;;
6483;SDS011;3275;52.376;9.694;2023-06-26T04:40:40;5.30;;;4.10;;
6483;SDS011;3275;52.376;9.694;2023-06-26T04:43:07;8.37;;;4.70;;
6483;SDS011;3275;52.376;9.694;2023-06-26T04:45:33;6.03;;;4.20;;
6483;SDS011;3275;52.376;9.694;2023-06-26T04:48:01;7.23;;;4.67;;
6483;SDS011;3275;52.376;9.694;2023-06-26T04:50:28;7.40;;;4.93;;
6483;SDS011;3275;52.376;9.694;2023-06-26T04:52:56;6.87;;;5.30;;
6483;SDS011;3275;52.376;9.694;2023-06-26T04:55:23;5.63;;;4.40;;
6483;SDS011;3275;52.376;9.694;2023-06-26T04:57:50;6.13;;;4.70;;
6483;SDS011;3275;52.376;9.694;2023-06-26T05:00:17;5.30;;;4.20;;
6483;SDS011;3275;52.376;9.694;2023-06-26T05:02:44;8.67;;;4.80;;
6483;SDS011;3275;52.376;9.694;2023-06-26T05:05:12;10.37;;;5.10;;
6483;SDS011;3275;52.376;9.694;2023-06-26T05:07:40;6.70;;;4.40;;
6483;SDS011;3275;52.376;9.694;2023-06-26T05:10:07;6.30;;;4.60;;
6483;SDS011;3275;52.376;9.694;2023-06-26T05:12:34;5.17;;;4.57;;
6483;SDS011;3275;52.376;9.694;2023-06-26T05:15:01;5.73;;;4.50;;
6483;SDS011;3275;52.376;9.694;2023-06-26T05:17:28;8.83;;;4.50;;
6483;SDS011;3275;52.376;9.694;2023-06-26T05:19:55;6.67;;;4.27;;
6483;SDS011;3275;52.376;9.694;2023-06-26T05:22:23;7.03;;;5.03;;
6483;SDS011;3275;52.376;9.694;2023-06-26T05:24:51;6.37;;;4.23;;
6483;SDS011;3275;52.376;9.694;2023-06-26T05:27:21;7.30;;;5.77;;
6483;SDS011;3275;52.376;9.694;2023-06-26T05:29:49;5.83;;;4.70;;
6483;SDS011;3275;52.376;9.694;2023-06-26T05:32:16;8.53;;;5.53;;
6483;SDS011;3275;52.376;9.694;2023-06-26T05:34:43;6.93;;;5.13;;
6483;SDS011;3275;52.376;9.694;2023-06-26T05:37:11;6.53;;;3.80;;
6483;SDS011;3275;52.376;9.694;2023-06-26T05:39:45;6.50;;;4.67;;
6483;SDS011;3275;52.376;9.694;2023-06-26T05:42:13;7.03;;;4.70;;
6483;SDS011;3275;52.376;9.694;2023-06-26T05:44:41;5.77;;;4.50;;
6483;SDS011;3275;52.376;9.694;2023-06-26T05:47:07;8.77;;;4.50;;
6483;SDS011;3275;52.376;9.694;2023-06-26T05:49:34;17.57;;;5.77;;
6483;SDS011;3275;52.376;9.694;2023-06-26T05:52:01;7.63;;;5.43;;
6483;SDS011;3275;52.376;9.694;2023-06-26T05:54:28;7.73;;;5.33;;
6483;SDS011;3275;52.376;9.694;2023-06-26T05:56:56;10.73;;;4.80;;
6483;SDS011;3275;52.376;9.694;2023-06-26T05:59:24;8.20;;;5.03;;
6483;SDS011;3275;52.376;9.694;2023-06-26T06:01:51;6.10;;;4.93;;
6483;SDS011;3275;52.376;9.694;2023-06-26T06:04:18;9.07;;;5.57;;
6483;SDS011;3275;52.376;9.694;2023-06-26T06:06:44;7.77;;;5.37;;
6483;SDS011;3275;52.376;9.694;2023-06-26T06:09:11;5.37;;;4.60;;
6483;SDS011;3275;52.376;9.694;2023-06-26T06:11:37;7.83;;;5.83;;
6483;SDS011;3275;52.376;9.694;2023-06-26T06:14:05;11.30;;;5.60;;
6483;SDS011;3275;52.376;9.694;2023-06-26T06:16:32;8.00;;;4.30;;
6483;SDS011;3275;52.376;9.694;2023-06-26T06:18:59;9.93;;;5.80;;
6483;SDS011;3275;52.376;9.694;2023-06-26T06:21:25;8.70;;;5.23;;
6483;SDS011;3275;52.376;9.694;2023-06-26T06:23:52;6.53;;;4.90;;
6483;SDS011;3275;52.376;9.694;2023-06-26T06:26:18;7.33;;;4.40;;
6483;SDS011;3275;52.376;9.694;2023-06-26T06:28:45;7.10;;;4.27;;
6483;SDS011;3275;52.376;9.694;2023-06-26T06:31:13;9.50;;;4.70;;
6483;SDS011;3275;52.376;9.694;2023-06-26T06:33:39;6.40;;;4.97;;
6483;SDS011;3275;52.376;9.694;2023-06-26T06:36:06;6.30;;;4.90;;
6483;SDS011;3275;52.376;9.694;2023-06-26T06:38:33;16.13;;;5.30;;
6483;SDS011;3275;52.376;9.694;2023-06-26T06:41:00;6.87;;;5.30;;
6483;SDS011;3275;52.376;9.694;2023-06-26T06:43:27;5.30;;;4.70;;
6483;SDS011;3275;52.376;9.694;2023-06-26T06:45:53;7.37;;;5.07;;
6483;SDS011;3275;52.376;9.694;2023-06-26T06:48:21;7.50;;;5.80;;
6483;SDS011;3275;52.376;9.694;2023-06-26T06:50:48;10.40;;;5.30;;
6483;SDS011;3275;52.376;9.694;2023-06-26T06:53:14;7.97;;;6.03;;
6483;SDS011;3275;52.376;9.694;2023-06-26T06:55:41;10.90;;;5.10;;
6483;SDS011;3275;52.376;9.694;2023-06-26T06:58:07;10.93;;;5.27;;
6483;SDS011;3275;52.376;9.694;2023-06-26T07:00:34;8.33;;;5.30;;
6483;SDS011;3275;52.376;9.694;2023-06-26T07:03:00;6.83;;;5.13;;
6483;SDS011;3275;52.376;9.694;2023-06-26T07:05:29;8.70;;;5.87;;
6483;SDS011;3275;52.376;9.694;2023-06-26T07:07:55;6.67;;;5.40;;
6483;SDS011;3275;52.376;9.694;2023-06-26T07:10:22;16.37;;;6.80;;
6483;SDS011;3275;52.376;9.694;2023-06-26T07:12:49;10.37;;;6.07;;
6483;SDS011;3275;52.376;9.694;2023-06-26T07:15:16;13.60;;;5.77;;
6483;SDS011;3275;52.376;9.694;2023-06-26T07:17:43;9.50;;;5.00;;
6483;SDS011;3275;52.376;9.694;2023-06-26T07:20:09;12.97;;;5.80;;
6483;SDS011;3275;52.376;9.694;2023-06-26T07:22:41;12.07;;;6.30;;
6483;SDS011;3275;52.376;9.694;2023-06-26T07:25:10;7.57;;;5.67;;
6483;SDS011;3275;52.376;9.694;2023-06-26T07:27:37;10.00;;;5.20;;
6483;SDS011;3275;52.376;9.694;2023-06-26T07:30:04;7.50;;;5.17;;
6483;SDS011;3275;52.376;9.694;2023-06-26T07:32:33;7.53;;;5.67;;
6483;SDS011;3275;52.376;9.694;2023-06-26T07:35:00;9.50;;;5.33;;
6483;SDS011;3275;52.376;9.694;2023-06-26T07:37:27;8.50;;;5.00;;
6483;SDS011;3275;52.376;9.694;2023-06-26T07:39:55;6.10;;;5.20;;
6483;SDS011;3275;52.376;9.694;2023-06-26T07:42:21;11.90;;;5.60;;
6483;SDS011;3275;52.376;9.694;2023-06-26T07:44:48;9.73;;;5.47;;
6483;SDS011;3275;52.376;9.694;2023-06-26T07:47:14;7.00;;;4.90;;
6483;SDS011;3275;52.376;9.694;2023-06-26T07:49:41;6.87;;;5.20;;
6483;SDS011;3275;52.376;9.694;2023-06-26T07:52:08;8.03;;;5.80;;
6483;SDS011;3275;52.376;9.694;2023-06-26T07:54:36;6.77;;;5.13;;
6483;SDS011;3275;52.376;9.694;2023-06-26T07:57:04;6.07;;;4.60;;
6483;SDS011;3275;52.376;9.694;2023-06-26T07:59:33;7.53;;;5.73;;
6483;SDS011;3275;52.376;9.694;2023-06-26T08:02:00;10.20;;;5.70;;
6483;SDS011;3275;52.376;9.694;2023-06-26T08:04:27;7.47;;;5.63;;
6483;SDS011;3275;52.376;9.694;2023-06-26T08:06:57;9.63;;;5.30;;
6483;SDS011;3275;52.376;9.694;2023-06-26T08:09:25;11.10;;;4.60;;
6483;SDS011;3275;52.376;9.694;2023-06-26T08:11:53;8.93;;;6.07;;
6483;SDS011;3275;52.376;9.694;2023-06-26T08:14:21;7.53;;;5.17;;
6483;SDS011;3275;52.376;9.694;2023-06-26T08:16:48;9.77;;;5.67;;
6483;SDS011;3275;52.376;9.694;2023-06-26T08:19:15;6.73;;;5.40;;
6483;SDS011;3275;52.376;9.694;2023-06-26T08:21:42;7.27;;;5.73;;
6483;SDS011;3275;52.376;9.694;2023-06-26T08:24:10;8.37;;;5.33;;
6483;SDS011;3275;52.376;9.694;2023-06-26T08:26:38;6.77;;;5.13;;
6483;SDS011;3275;52.376;9.694;2023-06-26T08:29:05;7.30;;;5.50;;
6483;SDS011;3275;52.376;9.694;2023-06-26T08:31:34;8.17;;;5.47;;
6483;SDS011;3275;52.376;9.694;2023-06-26T08:34:01;10.10;;;5.13;;
6483;SDS011;3275;52.376;9.694;2023-06-26T08:36:28;7.63;;;5.53;;
6483;SDS011;3275;52.376;9.694;2023-06-26T08:38:54;7.30;;;5.80;;
6483;SDS011;3275;52.376;9.694;2023-06-26T08:41:21;8.30;;;5.13;;
6483;SDS011;3275;52.376;9.694;2023-06-26T08:43:48;6.70;;;5.50;;
6483;SDS011;3275;52.376;9.694;2023-06-26T08:46:16;9.23;;;4.80;;
6483;SDS011;3275;52.376;9.694;2023-06-26T08:48:48;7.37;;;5.77;;
6483;SDS011;3275;52.376;9.694;2023-06-26T08:51:16;6.57;;;5.83;;
6483;SDS011;3275;52.376;9.694;2023-06-26T08:53:46;8.93;;;5.70;;
6483;SDS011;3275;52.376;9.694;2023-06-26T08:56:16;8.33;;;5.80;;
6483;SDS011;3275;52.376;9.694;2023-06-26T08:58:46;8.63;;;6.27;;
6483;SDS011;3275;52.376;9.694;2023-06-26T09:01:13;6.77;;;5.37;;
6483;SDS011;3275;52.376;9.694;2023-06-26T09:03:39;7.40;;;6.20;;
6483;SDS011;3275;52.376;9.694;2023-06-26T09:06:07;9.20;;;7.00;;
6483;SDS011;3275;52.376;9.694;2023-06-26T09:08:34;11.33;;;7.00;;
6483;SDS011;3275;52.376;9.694;2023-06-26T09:11:01;11.57;;;7.80;;
6483;SDS011;3275;52.376;9.694;2023-06-26T09:13:28;11.67;;;7.80;;
6483;SDS011;3275;52.376;9.694;2023-06-26T09:15:55;10.23;;;7.53;;
6483;SDS011;3275;52.376;9.694;2023-06-26T09:18:22;18.57;;;7.60;;
6483;SDS011;3275;52.376;9.694;2023-06-26T09:20:49;12.57;;;7.17;;
6483;SDS011;3275;52.376;9.694;2023-06-26T09:23:17;10.00;;;7.20;;
6483;SDS011;3275;52.376;9.694;2023-06-26T09:25:43;9.20;;;6.40;;
6483;SDS011;3275;52.376;9.694;2023-06-26T09:28:13;9.27;;;6.03;;
6483;SDS011;3275;52.376;9.694;2023-06-26T09:30:40;10.40;;;7.30;;
6483;SDS011;3275;52.376;9.694;2023-06-26T09:33:13;12.80;;;7.50;;
6483;SDS011;3275;52.376;9.694;2023-06-26T09:35:41;9.97;;;6.93;;
6483;SDS011;3275;52.376;9.694;2023-06-26T09:38:08;10.90;;;8.10;;
6483;SDS011;3275;52.376;9.694;2023-06-26T09:40:36;13.90;;;7.93;;
6483;SDS011;3275;52.376;9.694;2023-06-26T09:43:03;13.30;;;8.77;;
6483;SDS011;3275;52.376;9.694;2023-06-26T09:45:30;21.03;;;8.80;;
6483;SDS011;3275;52.376;9.694;2023-06-26T09:47:59;10.57;;;8.23;;
6483;SDS011;3275;52.376;9.694;2023-06-26T09:50:27;9.50;;;7.50;;
6483;SDS011;3275;52.376;9.694;2023-06-26T09:52:56;11.17;;;7.27;;
6483;SDS011;3275;52.376;9.694;2023-06-26T09:55:23;9.70;;;6.50;;
6483;SDS011;3275;52.376;9.694;2023-06-26T09:57:52;8.43;;;6.60;;
6483;SDS011;3275;52.376;9.694;2023-06-26T10:00:22;11.50;;;6.67;;
6483;SDS011;3275;52.376;9.694;2023-06-26T10:02:49;15.23;;;8.40;;
6483;SDS011;3275;52.376;9.694;2023-06-26T10:05:15;13.20;;;7.87;;
6483;SDS011;3275;52.376;9.694;2023-06-26T10:07:42;17.17;;;10.33;;
6483;SDS011;3275;52.376;9.694;2023-06-26T10:10:09;10.67;;;7.43;;
6483;SDS011;3275;52.376;9.694;2023-06-26T10:12:37;10.40;;;8.57;;
6483;SDS011;3275;52.376;9.694;2023-06-26T10:15:05;12.50;;;8.70;;
6483;SDS011;3275;52.376;9.694;2023-06-26T10:17:37;15.03;;;8.83;;
6483;SDS011;3275;52.376;9.694;2023-06-26T10:20:05;10.43;;;8.23;;
6483;SDS011;3275;52.376;9.694;2023-06-26T10:22:36;13.90;;;8.07;;
6483;SDS011;3275;52.376;9.694;2023-06-26T10:25:07;11.52;;;7.63;;
6483;SDS011;3275;52.376;9.694;2023-06-26T10:27:37;15.93;;;8.20;;
6483;SDS011;3275;52.376;9.694;2023-06-26T10:30:11;10.10;;;6.97;;
6483;SDS011;3275;52.376;9.694;2023-06-26T10:32:43;9.50;;;7.40;;
6483;SDS011;3275;52.376;9.694;2023-06-26T10:35:11;10.17;;;6.80;;
6483;SDS011;3275;52.376;9.694;2023-06-26T10:37:41;11.10;;;7.90;;
6483;SDS011;3275;52.376;9.694;2023-06-26T10:40:09;15.67;;;7.93;;
6483;SDS011;3275;52.376;9.694;2023-06-26T10:42:37;19.13;;;8.53;;
6483;SDS011;3275;52.376;9.694;2023-06-26T10:45:13;16.10;;;8.90;;
6483;SDS011;3275;52.376;9.694;2023-06-26T10:47:41;13.40;;;8.23;;
6483;SDS011;3275;52.376;9.694;2023-06-26T10:50:22;14.60;;;8.43;;
6483;SDS011;3275;52.376;9.694;2023-06-26T10:55:35;14.57;;;8.50;;
6483;SDS011;3275;52.376;9.694;2023-06-26T10:58:02;13.50;;;8.73;;
6483;SDS011;3275;52.376;9.694;2023-06-26T11:00:30;13.37;;;7.67;;
6483;SDS011;3275;52.376;9.694;2023-06-26T11:02:57;13.37;;;8.10;;
6483;SDS011;3275;52.376;9.694;2023-06-26T11:05:26;10.00;;;7.33;;
6483;SDS011;3275;52.376;9.694;2023-06-26T11:08:03;9.93;;;7.80;;
6483;SDS011;3275;52.376;9.694;2023-06-26T11:10:40;12.43;;;7.10;;
6483;SDS011;3275;52.376;9.694;2023-06-26T11:13:15;14.40;;;9.10;;
6483;SDS011;3275;52.376;9.694;2023-06-26T11:15:45;11.87;;;8.10;;
6483;SDS011;3275;52.376;9.694;2023-06-26T11:18:12;11.80;;;6.97;;
6483;SDS011;3275;52.376;9.694;2023-06-26T11:20:39;14.53;;;7.60;;
6483;SDS011;3275;52.376;9.694;2023-06-26T11:23:07;13.10;;;7.67;;
6483;SDS011;3275;52.376;9.694;2023-06-26T11:25:35;9.27;;;7.00;;
6483;SDS011;3275;52.376;9.694;2023-06-26T11:28:02;10.53;;;7.27;;
6483;SDS011;3275;52.376;9.694;2023-06-26T11:30:30;10.80;;;8.27;;
6483;SDS011;3275;52.376;9.694;2023-06-26T11:33:04;13.93;;;8.90;;
6483;SDS011;3275;52.376;9.694;2023-06-26T11:35:32;9.83;;;8.03;;
6483;SDS011;3275;52.376;9.694;2023-06-26T11:37:59;12.63;;;8.17;;
6483;SDS011;3275;52.376;9.694;2023-06-26T11:40:29;15.83;;;7.17;;
6483;SDS011;3275;52.376;9.694;2023-06-26T11:42:57;10.90;;;7.97;;
6483;SDS011;3275;52.376;9.694;2023-06-26T11:45:24;8.67;;;7.00;;
6483;SDS011;3275;52.376;9.694;2023-06-26T11:47:51;12.70;;;6.57;;
6483;SDS011;3275;52.376;9.694;2023-06-26T11:50:19;10.33;;;5.97;;
6483;SDS011;3275;52.376;9.694;2023-06-26T11:52:45;11.87;;;5.97;;
6483;SDS011;3275;52.376;9.694;2023-06-26T11:55:19;6.87;;;4.73;;
6483;SDS011;3275;52.376;9.694;2023-06-26T11:57:47;6.20;;;4.23;;
6483;SDS011;3275;52.376;9.694;2023-06-26T12:00:15;5.77;;;3.13;;
6483;SDS011;3275;52.376;9.694;2023-06-26T12:02:42;8.77;;;3.40;;
6483;SDS011;3275;52.376;9.694;2023-06-26T12:05:10;5.57;;;3.07;;
6483;SDS011;3275;52.376;9.694;2023-06-26T12:07:39;4.90;;;3.23;;
6483;SDS011;3275;52.376;9.694;2023-06-26T12:10:07;5.97;;;3.03;;
6483;SDS011;3275;52.376;9.694;2023-06-26T12:12:36;6.07;;;3.23;;
6483;SDS011;3275;52.376;9.694;2023-06-26T12:15:03;8.03;;;3.47;;
6483;SDS011;3275;52.376;9.694;2023-06-26T12:17:32;9.77;;;3.30;;
6483;SDS011;3275;52.376;9.694;2023-06-26T12:19:59;6.40;;;3.63;;
6483;SDS011;3275;52.376;9.694;2023-06-26T12:22:26;6.37;;;3.43;;
6483;SDS011;3275;52.376;9.694;2023-06-26T12:25:02;6.53;;;3.53;;
6483;SDS011;3275;52.376;9.694;2023-06-26T12:27:28;4.70;;;3.47;;
6483;SDS011;3275;52.376;9.694;2023-06-26T12:29:56;9.30;;;3.17;;
6483;SDS011;3275;52.376;9.694;2023-06-26T12:32:23;11.70;;;3.03;;
6483;SDS011;3275;52.376;9.694;2023-06-26T12:34:50;4.23;;;2.87;;
6483;SDS011;3275;52.376;9.694;2023-06-26T12:37:18;8.40;;;3.30;;
6483;SDS011;3275;52.376;9.694;2023-06-26T12:39:45;5.67;;;3.20;;
6483;SDS011;3275;52.376;9.694;2023-06-26T12:42:14;5.37;;;3.30;;
6483;SDS011;3275;52.376;9.694;2023-06-26T12:44:42;4.13;;;3.00;;
6483;SDS011;3275;52.376;9.694;2023-06-26T12:47:09;7.50;;;2.77;;
6483;SDS011;3275;52.376;9.694;2023-06-26T12:49:38;4.57;;;2.40;;
6483;SDS011;3275;52.376;9.694;2023-06-26T12:52:06;3.20;;;2.90;;
6483;SDS011;3275;52.376;9.694;2023-06-26T12:54:34;3.30;;;2.57;;
6483;SDS011;3275;52.376;9.694;2023-06-26T12:57:02;7.27;;;3.13;;
6483;SDS011;3275;52.376;9.694;2023-06-26T12:59:30;6.07;;;2.10;;
6483;SDS011;3275;52.376;9.694;2023-06-26T13:01:57;3.70;;;2.60;;
6483;SDS011;3275;52.376;9.694;2023-06-26T13:04:24;9.67;;;2.93;;
6483;SDS011;3275;52.376;9.694;2023-06-26T13:06:52;3.40;;;2.37;;
6483;SDS011;3275;52.376;9.694;2023-06-26T13:09:20;12.27;;;3.30;;
6483;SDS011;3275;52.376;9.694;2023-06-26T13:11:47;2.60;;;2.33;;
6483;SDS011;3275;52.376;9.694;2023-06-26T13:14:14;4.30;;;2.20;;
6483;SDS011;3275;52.376;9.694;2023-06-26T13:16:42;3.13;;;2.13;;
6483;SDS011;3275;52.376;9.694;2023-06-26T13:19:08;8.30;;;2.53;;
6483;SDS011;3275;52.376;9.694;2023-06-26T13:21:36;6.90;;;2.27;;
6483;SDS011;3275;52.376;9.694;2023-06-26T13:24:02;4.70;;;2.83;;
6483;SDS011;3275;52.376;9.694;2023-06-26T13:26:30;3.83;;;2.27;;
6483;SDS011;3275;52.376;9.694;2023-06-26T13:28:56;6.60;;;2.40;;
6483;SDS011;3275;52.376;9.694;2023-06-26T13:31:24;3.87;;;2.27;;
6483;SDS011;3275;52.376;9.694;2023-06-26T13:33:52;3.67;;;1.90;;
6483;SDS011;3275;52.376;9.694;2023-06-26T13:36:19;5.03;;;2.10;;
6483;SDS011;3275;52.376;9.694;2023-06-26T13:38:46;3.77;;;2.57;;
6483;SDS011;3275;52.376;9.694;2023-06-26T13:41:20;4.20;;;2.20;;
6483;SDS011;3275;52.376;9.694;2023-06-26T13:43:47;2.13;;;1.90;;
6483;SDS011;3275;52.376;9.694;2023-06-26T13:46:13;3.47;;;2.03;;
6483;SDS011;3275;52.376;9.694;2023-06-26T13:48:40;2.83;;;2.03;;
6483;SDS011;3275;52.376;9.694;2023-06-26T13:51:07;5.43;;;1.70;;
6483;SDS011;3275;52.376;9.694;2023-06-26T13:53:34;3.63;;;1.77;;
6483;SDS011;3275;52.376;9.694;2023-06-26T13:56:01;2.37;;;1.87;;
6483;SDS011;3275;52.376;9.694;2023-06-26T13:58:28;2.60;;;2.00;;
6483;SDS011;3275;52.376;9.694;2023-06-26T14:00:57;3.80;;;2.03;;
6483;SDS011;3275;52.376;9.694;2023-06-26T14:03:24;4.53;;;1.73;;
6483;SDS011;3275;52.376;9.694;2023-06-26T14:05:52;3.23;;;2.07;;
6483;SDS011;3275;52.376;9.694;2023-06-26T14:08:20;6.57;;;1.83;;
6483;SDS011;3275;52.376;9.694;2023-06-26T14:10:46;3.97;;;2.30;;
6483;SDS011;3275;52.376;9.694;2023-06-26T14:13:13;4.57;;;2.10;;
6483;SDS011;3275;52.376;9.694;2023-06-26T14:15:40;2.57;;;2.17;;
6483;SDS011;3275;52.376;9.694;2023-06-26T14:18:07;3.53;;;1.80;;
6483;SDS011;3275;52.376;9.694;2023-06-26T14:20:34;3.00;;;2.13;;
6483;SDS011;3275;52.376;9.694;2023-06-26T14:23:01;2.17;;;1.70;;
6483;SDS011;3275;52.376;9.694;2023-06-26T14:25:29;6.70;;;1.93;;
6483;SDS011;3275;52.376;9.694;2023-06-26T14:27:56;3.50;;;1.77;;
6483;SDS011;3275;52.376;9.694;2023-06-26T14:30:23;6.20;;;2.00;;
6483;SDS011;3275;52.376;9.694;2023-06-26T14:32:50;3.90;;;1.70;;
6483;SDS011;3275;52.376;9.694;2023-06-26T14:35:17;3.10;;;1.83;;
6483;SDS011;3275;52.376;9.694;2023-06-26T14:37:47;8.10;;;2.10;;
6483;SDS011;3275;52.376;9.694;2023-06-26T14:40:14;3.70;;;2.10;;
6483;SDS011;3275;52.376;9.694;2023-06-26T14:42:42;5.20;;;2.00;;
6483;SDS011;3275;52.376;9.694;2023-06-26T14:45:10;2.43;;;1.60;;
6483;SDS011;3275;52.376;9.694;2023-06-26T14:47:37;4.60;;;2.13;;
6483;SDS011;3275;52.376;9.694;2023-06-26T14:50:04;5.33;;;1.60;;
6483;SDS011;3275;52.376;9.694;2023-06-26T14:52:31;3.33;;;2.00;;
6483;SDS011;3275;52.376;9.694;2023-06-26T14:54:57;3.60;;;1.80;;
6483;SDS011;3275;52.376;9.694;2023-06-26T14:57:24;5.40;;;1.87;;
6483;SDS011;3275;52.376;9.694;2023-06-26T14:59:52;4.10;;;1.80;;
6483;SDS011;3275;52.376;9.694;2023-06-26T15:02:18;8.60;;;1.90;;
6483;SDS011;3275;52.376;9.694;2023-06-26T15:04:45;7.40;;;2.50;;
6483;SDS011;3275;52.376;9.694;2023-06-26T15:07:12;4.73;;;1.90;;
6483;SDS011;3275;52.376;9.694;2023-06-26T15:09:38;2.57;;;1.67;;
6483;SDS011;3275;52.376;9.694;2023-06-26T15:12:05;3.33;;;2.03;;
6483;SDS011;3275;52.376;9.694;2023-06-26T15:14:32;5.43;;;2.53;;
6483;SDS011;3275;52.376;9.694;2023-06-26T15:17:00;3.27;;;1.90;;
6483;SDS011;3275;52.376;9.694;2023-06-26T15:19:27;6.60;;;2.17;;